Погода Холм-Жирковскийна неделю

Смоленская область, Россия

23 - 29 июля
  • 23июля
    Сегодня
    +12°
    +22°
    Небольшая облачность
    ВремяПогодаТемператураВлажностьДавлениеВетер, м/сВероятность осадков
    00:00Ясно и безоблачно+15°C93 %739 мм2.9 м/с4 %
    03:00Ясно и безоблачно+14°C94 %740 мм2.6 м/с2 %
    06:00Ясно и безоблачно+14°C89 %740 мм3.2 м/с2 %
    09:00Ясно и безоблачно+18°C77 %741 мм2.6 м/с1 %
    12:00Практически безоблачно+20°C52 %741 мм3.4 м/с5 %
    15:00Небольшая облачность+21°C55 %741 мм3.6 м/с17 %
    18:00Небольшая облачность+21°C60 %741 мм3.3 м/с21 %
    21:00Практически безоблачно+18°C74 %741 мм2.1 м/с4 %
  • 24июля
    Среда
    +11°
    +24°
    Небольшая облачность
    ВремяПогодаТемператураВлажностьДавлениеВетер, м/сВероятность осадков
    00:00Ясно и безоблачно+14°C72 %741 мм2.4 м/с2 %
    03:00Облачно с прояснениями+13°C79 %741 мм2.0 м/с2 %
    06:00Практически безоблачно+12°C81 %741 мм2.4 м/с2 %
    09:00Ясно и безоблачно+19°C68 %741 мм1.6 м/с2 %
    12:00Небольшая облачность+22°C46 %741 мм2.4 м/с2 %
    15:00Небольшая облачность+23°C41 %740 мм2.0 м/с2 %
    18:00Практически безоблачно+23°C43 %739 мм1.8 м/с2 %
    21:00Ясно и безоблачно+19°C63 %739 мм1.7 м/с2 %
  • 25июля
    Четверг
    +13°
    +25°
    Практически безоблачно
    ВремяПогодаТемператураВлажностьДавлениеВетер, м/сВероятность осадков
    00:00Ясно и безоблачно+14°C76 %739 мм1.8 м/с2 %
    03:00Ясно и безоблачно+12°C79 %738 мм1.6 м/с2 %
    06:00Практически безоблачно+13°C74 %738 мм1.8 м/с2 %
    09:00Ясно и безоблачно+21°C60 %739 мм1.2 м/с2 %
    12:00Практически безоблачно+24°C45 %738 мм1.6 м/с8 %
    15:00Практически безоблачно+25°C47 %738 мм1.9 м/с30 %
    18:00Небольшая облачность, возможен дождь с грозой+22°C62 %738 мм2.7 м/с36 %
    21:00Ясно и безоблачно+19°C81 %737 мм1.4 м/с8 %
  • 26июля
    Пятница
    +12°
    +24°
    Ясно и безоблачно
    ВремяПогодаТемператураВлажностьДавлениеВетер, м/сВероятность осадков
    00:00Ясно и безоблачно+16°C85 %738 мм1.9 м/с2 %
    03:00Ясно и безоблачно+14°C92 %738 мм2.2 м/с3 %
    06:00Ясно и безоблачно+15°C96 %739 мм2.3 м/с2 %
    09:00Ясно и безоблачно+19°C79 %739 мм2.3 м/с3 %
    12:00Ясно и безоблачно+22°C58 %740 мм2.5 м/с18 %
    15:00Ясно и безоблачно+23°C45 %740 мм1.9 м/с19 %
    18:00Ясно и безоблачно+23°C43 %740 мм2.4 м/с22 %
    21:00Ясно и безоблачно+18°C63 %741 мм1.7 м/с10 %
  • 27июля
    Суббота
    +14°
    +25°
    Пасмурно, сплошная облачность
    ВремяПогодаТемператураВлажностьДавлениеВетер, м/сВероятность осадков
    00:00Ясно и безоблачно+17°C53 %741 мм1.2 м/с2 %
    03:00Ясно и безоблачно+13°C77 %742 мм1.6 м/с2 %
    06:00Ясно и безоблачно+14°C75 %742 мм1.8 м/с2 %
    09:00Ясно и безоблачно+21°C62 %743 мм1.2 м/с6 %
    12:00Ясно и безоблачно+24°C53 %743 мм2.3 м/с16 %
    15:00Пасмурно, сплошная облачность+25°C49 %743 мм2.5 м/с26 %
    18:00Практически безоблачно+24°C60 %743 мм1.5 м/с35 %
    21:00Ясно и безоблачно+20°C80 %743 мм1.3 м/с8 %
Мы используем cookies
Соглашаюсь